createdAt,value
2023-01-02T00:01:58.704Z,62.79
2023-01-02T00:04:25.212Z,62.97
2023-01-02T00:06:51.823Z,63.09
2023-01-02T00:09:20.000Z,63.04
2023-01-02T00:11:46.621Z,62.69
2023-01-02T00:14:13.192Z,63.29
2023-01-02T00:16:39.780Z,63.29
2023-01-02T00:19:08.569Z,63.39
2023-01-02T00:21:36.239Z,62.97
2023-01-02T00:24:02.778Z,63.55
2023-01-02T00:26:30.156Z,63.28
2023-01-02T00:28:56.728Z,63.38
2023-01-02T00:31:23.436Z,64.30
2023-01-02T00:33:49.986Z,63.84
2023-01-02T00:36:16.582Z,64.16
2023-01-02T00:38:43.184Z,64.91
2023-01-02T00:41:10.166Z,64.26
2023-01-02T00:43:36.912Z,65.20
2023-01-02T00:46:10.881Z,65.18
2023-01-02T00:48:38.420Z,65.18
2023-01-02T00:51:05.114Z,65.98
2023-01-02T00:53:31.612Z,65.75
2023-01-02T00:55:58.162Z,65.76
2023-01-02T00:58:24.666Z,65.91
2023-01-02T01:00:51.302Z,65.69
2023-01-02T01:03:17.928Z,65.89
2023-01-02T01:05:44.696Z,66.05
2023-01-02T01:08:11.307Z,65.74
2023-01-02T01:10:38.290Z,65.74
2023-01-02T01:13:05.443Z,65.72
2023-01-02T01:15:33.203Z,65.28
2023-01-02T01:17:59.785Z,65.63
2023-01-02T01:20:26.517Z,64.98
2023-01-02T01:22:53.119Z,65.63
2023-01-02T01:25:19.726Z,65.26
2023-01-02T01:27:46.319Z,65.72
2023-01-02T01:30:12.989Z,65.68
2023-01-02T01:32:39.562Z,65.72
2023-01-02T01:35:06.687Z,65.71
2023-01-02T01:37:33.314Z,64.96
2023-01-02T01:39:59.829Z,65.06
2023-01-02T01:42:32.630Z,65.16
2023-01-02T01:44:59.124Z,65.27
2023-01-02T01:47:39.841Z,65.21
2023-01-02T01:50:18.888Z,65.53
2023-01-02T01:53:13.843Z,65.03
2023-01-02T01:56:02.127Z,65.20
2023-01-02T01:58:54.762Z,64.50
2023-01-02T02:01:21.390Z,64.89
2023-01-02T02:03:49.691Z,64.76
2023-01-02T02:06:16.718Z,64.85
2023-01-02T02:08:57.511Z,64.78
2023-01-02T02:11:24.361Z,64.75
2023-01-02T02:13:50.990Z,64.54
2023-01-02T02:16:17.588Z,64.28
2023-01-02T02:19:07.378Z,64.65
2023-01-02T02:22:02.183Z,64.03
2023-01-02T02:24:50.051Z,64.30
2023-01-02T02:27:58.193Z,64.15
2023-01-02T02:30:34.894Z,64.31
2023-01-02T02:33:13.073Z,64.56
2023-01-02T02:36:18.878Z,63.94
2023-01-02T02:39:24.041Z,64.88
2023-01-02T02:42:14.297Z,64.39
2023-01-02T02:45:01.887Z,64.15
2023-01-02T02:47:34.821Z,63.99
2023-01-02T02:50:12.615Z,63.81
2023-01-02T02:52:46.734Z,63.81
2023-01-02T02:55:17.161Z,64.00
2023-01-02T02:57:44.863Z,63.68
2023-01-02T03:00:14.996Z,63.57
2023-01-02T03:02:41.641Z,63.15
2023-01-02T03:05:12.443Z,62.93
2023-01-02T03:07:46.851Z,62.60
2023-01-02T03:10:51.007Z,62.76
2023-01-02T03:13:40.826Z,62.76
2023-01-02T03:16:30.417Z,62.96
2023-01-02T03:19:10.994Z,61.87
2023-01-02T03:21:48.034Z,61.84
2023-01-02T03:24:16.840Z,61.79
2023-01-02T03:26:45.513Z,61.84
2023-01-02T03:29:30.385Z,61.36
2023-01-02T03:31:58.255Z,61.24
2023-01-02T03:34:27.343Z,60.46
2023-01-02T03:36:58.543Z,60.63
2023-01-02T03:39:28.536Z,60.64
2023-01-02T03:42:00.435Z,60.40
2023-01-02T03:44:34.783Z,60.31
2023-01-02T03:47:27.535Z,59.99
2023-01-02T03:49:54.883Z,60.38
2023-01-02T03:52:25.904Z,60.02
2023-01-02T03:54:54.058Z,60.14
2023-01-02T03:57:23.152Z,59.57
2023-01-02T04:00:00.518Z,59.99
2023-01-02T04:02:46.398Z,59.14
2023-01-02T04:05:28.807Z,59.77
2023-01-02T04:08:03.233Z,59.28
2023-01-02T04:10:30.491Z,59.13
2023-01-02T04:13:01.899Z,59.23
2023-01-02T04:15:32.373Z,59.52
2023-01-02T04:18:11.851Z,59.58
2023-01-02T04:20:41.782Z,59.79
2023-01-02T04:23:15.789Z,59.09
2023-01-02T04:25:49.551Z,59.93
2023-01-02T04:28:21.106Z,59.47
2023-01-02T04:30:52.584Z,59.74
2023-01-02T04:33:19.901Z,59.35
2023-01-02T04:35:46.489Z,59.42
2023-01-02T04:38:13.107Z,59.01
2023-01-02T04:40:39.808Z,59.32
2023-01-02T04:43:08.465Z,58.75
2023-01-02T04:45:35.191Z,59.25
2023-01-02T04:48:01.844Z,59.39
2023-01-02T04:50:28.364Z,58.85
2023-01-02T04:52:54.910Z,58.83
2023-01-02T04:55:21.483Z,59.00
2023-01-02T04:57:48.153Z,58.61
2023-01-02T05:00:15.542Z,58.90
2023-01-02T05:02:42.271Z,58.80
2023-01-02T05:05:09.276Z,57.98
2023-01-02T05:07:37.039Z,57.79
2023-01-02T05:10:04.294Z,58.01
2023-01-02T05:12:34.413Z,58.32
2023-01-02T05:15:01.297Z,58.50
2023-01-02T05:17:27.873Z,58.66
2023-01-02T05:19:54.415Z,58.22
2023-01-02T05:22:39.284Z,57.98
2023-01-02T05:25:06.297Z,57.86
2023-01-02T05:27:33.347Z,57.63
2023-01-02T05:29:59.905Z,57.61
2023-01-02T05:32:27.714Z,57.26
2023-01-02T05:34:54.221Z,57.67
2023-01-02T05:37:20.772Z,57.57
2023-01-02T05:39:47.272Z,57.34
2023-01-02T05:42:13.811Z,57.90
2023-01-02T05:44:40.361Z,57.59
2023-01-02T05:47:07.797Z,57.60
2023-01-02T05:49:36.872Z,57.65
2023-01-02T05:52:03.740Z,57.81
2023-01-02T05:54:30.514Z,57.77
2023-01-02T05:56:57.082Z,57.66
2023-01-02T05:59:23.931Z,57.53
2023-01-02T06:01:50.625Z,56.41
2023-01-02T06:04:19.841Z,56.83
2023-01-02T06:06:47.205Z,56.54
2023-01-02T06:09:14.757Z,56.25
2023-01-02T06:11:41.439Z,55.98
2023-01-02T06:14:10.579Z,55.92
2023-01-02T06:16:38.323Z,56.01
2023-01-02T06:19:05.784Z,55.91
2023-01-02T06:21:32.694Z,55.70
2023-01-02T06:23:59.300Z,56.20
2023-01-02T06:26:32.742Z,55.51
2023-01-02T06:29:01.550Z,55.35
2023-01-02T06:31:29.616Z,55.35
2023-01-02T06:34:01.120Z,55.49
2023-01-02T06:36:30.767Z,55.61
2023-01-02T06:38:57.708Z,55.37
2023-01-02T06:41:24.425Z,55.16
2023-01-02T06:43:52.879Z,55.59
2023-01-02T06:46:21.427Z,55.13
2023-01-02T06:48:48.309Z,54.97
2023-01-02T06:51:18.596Z,55.60
2023-01-02T06:53:45.447Z,54.89
2023-01-02T06:56:13.996Z,54.78
2023-01-02T06:58:40.651Z,54.87
2023-01-02T07:01:09.648Z,54.80
2023-01-02T07:03:36.628Z,54.49
2023-01-02T07:06:07.074Z,54.71
2023-01-02T07:08:33.946Z,54.50
2023-01-02T07:11:10.262Z,54.15
2023-01-02T07:13:37.420Z,54.09
2023-01-02T07:16:05.569Z,54.26
2023-01-02T07:18:32.428Z,54.35
2023-01-02T07:20:59.130Z,54.31
2023-01-02T07:23:26.160Z,54.39
2023-01-02T07:25:54.326Z,54.17
2023-01-02T07:28:20.950Z,53.89
2023-01-02T07:30:47.771Z,53.91
2023-01-02T07:33:14.371Z,53.94
2023-01-02T07:35:41.239Z,53.94
2023-01-02T07:38:07.862Z,53.51
2023-01-02T07:40:34.417Z,53.78
2023-01-02T07:43:00.931Z,53.78
2023-01-02T07:45:27.486Z,53.76
2023-01-02T07:47:54.065Z,54.05
2023-01-02T07:50:20.569Z,53.60
2023-01-02T07:52:47.121Z,53.53
2023-01-02T07:55:14.069Z,53.54
2023-01-02T07:57:40.991Z,53.17
2023-01-02T08:00:08.042Z,53.39
2023-01-02T08:02:38.733Z,53.44
2023-01-02T08:05:05.610Z,53.49
2023-01-02T08:07:32.203Z,53.37
2023-01-02T08:09:58.723Z,53.11
2023-01-02T08:12:25.303Z,53.08
2023-01-02T08:14:51.820Z,52.88
2023-01-02T08:17:18.387Z,52.34
2023-01-02T08:19:45.047Z,52.58
2023-01-02T08:22:11.609Z,52.56
2023-01-02T08:24:38.144Z,52.20
2023-01-02T08:27:04.684Z,52.16
2023-01-02T08:29:31.332Z,51.75
2023-01-02T08:31:59.253Z,52.03
2023-01-02T08:34:26.081Z,51.87
2023-01-02T08:36:53.817Z,51.55
2023-01-02T08:39:20.395Z,51.88
2023-01-02T08:41:46.984Z,51.50
2023-01-02T08:44:13.582Z,51.14
2023-01-02T08:46:42.858Z,51.14
2023-01-02T08:49:10.879Z,51.31
2023-01-02T08:51:37.484Z,51.36
2023-01-02T08:54:07.567Z,51.04
2023-01-02T08:56:35.367Z,51.56
2023-01-02T08:59:10.580Z,51.43
2023-01-02T09:01:37.684Z,50.92
2023-01-02T09:04:11.604Z,51.05
2023-01-02T09:06:39.513Z,50.97
2023-01-02T09:09:11.645Z,51.00
2023-01-02T09:11:43.533Z,50.91
2023-01-02T09:14:10.022Z,51.01
2023-01-02T09:16:36.579Z,50.43
2023-01-02T09:19:05.191Z,49.95
2023-01-02T09:21:31.830Z,50.28
2023-01-02T09:23:58.409Z,50.63
2023-01-02T09:26:25.492Z,50.28
2023-01-02T09:28:52.351Z,50.17
2023-01-02T09:31:19.613Z,49.61
2023-01-02T09:33:48.142Z,49.56
2023-01-02T09:36:17.146Z,49.51
2023-01-02T09:38:43.997Z,49.01
2023-01-02T09:41:25.866Z,49.29
2023-01-02T09:43:56.770Z,48.83
2023-01-02T09:46:31.807Z,48.48
2023-01-02T09:49:00.370Z,49.02
2023-01-02T09:51:27.401Z,49.13
2023-01-02T09:53:54.146Z,48.93
2023-01-02T09:56:33.948Z,48.58
2023-01-02T09:59:33.305Z,48.90
2023-01-02T10:02:06.074Z,48.17
2023-01-02T10:04:59.388Z,48.20
2023-01-02T10:08:03.891Z,47.92
2023-01-02T10:10:38.738Z,48.16
2023-01-02T10:13:59.899Z,48.04
2023-01-02T10:16:21.431Z,47.68
2023-01-02T10:18:51.813Z,47.78
2023-01-02T10:21:25.571Z,47.80
2023-01-02T10:24:05.642Z,47.67
2023-01-02T10:26:37.184Z,47.52
2023-01-02T10:29:11.807Z,48.06
2023-01-02T10:31:42.330Z,47.34
2023-01-02T10:34:18.951Z,47.54
2023-01-02T10:36:46.508Z,47.58
2023-01-02T10:39:16.610Z,47.34
2023-01-02T10:41:47.825Z,47.77
2023-01-02T10:44:28.450Z,47.43
2023-01-02T10:46:55.697Z,47.17
2023-01-02T10:49:23.784Z,47.01
2023-01-02T10:52:19.545Z,47.30
2023-01-02T10:54:59.461Z,47.65
2023-01-02T10:57:47.384Z,47.55
2023-01-02T11:00:25.658Z,47.71
2023-01-02T11:02:57.204Z,47.24
2023-01-02T11:05:26.341Z,47.12
2023-01-02T11:07:53.373Z,47.57
2023-01-02T11:10:32.421Z,47.43
2023-01-02T11:13:03.474Z,47.92
2023-01-02T11:15:34.376Z,48.28
2023-01-02T11:18:01.057Z,49.25
2023-01-02T11:20:30.227Z,50.14
2023-01-02T11:22:59.370Z,50.88
2023-01-02T11:25:28.372Z,51.99
2023-01-02T11:28:01.735Z,52.43
2023-01-02T11:30:43.972Z,52.33
2023-01-02T11:33:13.436Z,52.69
2023-01-02T11:35:46.328Z,52.73
2023-01-02T11:38:28.970Z,52.78
2023-01-02T11:41:01.809Z,53.07
2023-01-02T11:43:49.063Z,52.98
2023-01-02T11:46:37.000Z,53.13
2023-01-02T11:49:06.910Z,52.76
2023-01-02T11:51:35.291Z,53.07
2023-01-02T11:54:04.826Z,53.36
2023-01-02T11:56:36.262Z,52.58
2023-01-02T11:59:16.501Z,52.64
2023-01-02T12:01:55.310Z,53.35
2023-01-02T12:04:23.507Z,52.90
2023-01-02T12:07:02.171Z,53.88
2023-01-02T12:09:56.416Z,54.85
2023-01-02T12:12:35.908Z,55.24
2023-01-02T12:15:08.636Z,54.59
2023-01-02T12:17:54.407Z,54.14
2023-01-02T12:20:26.450Z,54.75
2023-01-02T12:22:59.162Z,54.41
2023-01-02T12:25:45.727Z,53.87
2023-01-02T12:28:17.694Z,56.28
2023-01-02T12:30:55.301Z,56.37
2023-01-02T12:33:54.747Z,55.99
2023-01-02T12:36:33.120Z,55.86
2023-01-02T12:39:30.887Z,54.30
2023-01-02T12:42:14.248Z,54.24
2023-01-02T12:44:49.102Z,54.49
2023-01-02T12:47:24.253Z,54.60
2023-01-02T12:50:03.791Z,54.99
2023-01-02T12:52:36.496Z,55.85
2023-01-02T12:55:24.796Z,55.87
2023-01-02T12:58:14.958Z,56.42
2023-01-02T13:01:03.836Z,56.08
2023-01-02T13:03:46.027Z,56.23
2023-01-02T13:06:44.347Z,56.12
2023-01-02T13:09:40.036Z,55.54
2023-01-02T13:12:14.420Z,54.94
2023-01-02T13:15:01.071Z,55.26
2023-01-02T13:17:35.886Z,54.77
2023-01-02T13:20:36.041Z,54.60
2023-01-02T13:23:20.869Z,54.28
2023-01-02T13:25:50.743Z,54.94
2023-01-02T13:28:18.648Z,55.05
2023-01-02T13:31:44.174Z,54.64
2023-01-02T13:33:53.413Z,54.62
2023-01-02T13:36:24.170Z,54.00
2023-01-02T13:38:54.903Z,54.91
2023-01-02T13:41:22.120Z,54.94
2023-01-02T13:43:56.944Z,54.08
2023-01-02T13:49:19.848Z,54.58
2023-01-02T13:51:46.771Z,55.01
2023-01-02T13:54:20.545Z,54.10
2023-01-02T13:57:17.196Z,55.04
2023-01-02T14:00:00.858Z,55.05
2023-01-02T14:02:27.631Z,54.95
2023-01-02T14:04:54.495Z,54.91
2023-01-02T14:07:27.541Z,53.17
2023-01-02T14:10:09.116Z,53.27
2023-01-02T14:12:55.640Z,54.18
2023-01-02T14:15:24.687Z,54.80
2023-01-02T14:17:51.182Z,54.68
2023-01-02T14:20:22.853Z,54.56
2023-01-02T14:23:04.357Z,54.32
2023-01-02T14:25:32.080Z,54.18
2023-01-02T14:28:03.946Z,54.03
2023-01-02T14:30:31.585Z,53.66
2023-01-02T14:32:59.504Z,53.58
2023-01-02T14:35:33.942Z,52.53
2023-01-02T14:38:30.945Z,52.67
2023-01-02T14:41:17.505Z,53.20
2023-01-02T14:43:44.567Z,53.16
2023-01-02T14:46:19.881Z,52.28
2023-01-02T14:49:24.803Z,52.45
2023-01-02T14:52:01.888Z,52.70
2023-01-02T14:55:01.154Z,52.61
2023-01-02T14:57:31.681Z,52.62
2023-01-02T15:00:01.340Z,52.64
2023-01-02T15:02:31.118Z,52.45
2023-01-02T15:05:06.189Z,52.12
2023-01-02T15:07:36.928Z,52.26
2023-01-02T15:10:07.176Z,52.16
2023-01-02T15:13:02.081Z,52.90
2023-01-02T15:15:30.748Z,52.21
2023-01-02T15:18:02.945Z,52.41
2023-01-02T15:20:31.148Z,52.42
2023-01-02T15:22:58.975Z,52.58
2023-01-02T15:25:41.504Z,52.33
2023-01-02T15:28:31.974Z,53.04
2023-01-02T15:30:59.675Z,53.41
2023-01-02T15:33:30.322Z,53.60
2023-01-02T15:36:00.699Z,53.88
2023-01-02T15:38:27.282Z,53.93
2023-01-02T15:40:55.478Z,54.04
2023-01-02T15:43:40.663Z,54.16
2023-01-02T15:46:07.451Z,53.72
2023-01-02T15:48:34.372Z,53.92
2023-01-02T15:51:01.271Z,54.06
2023-01-02T15:53:28.786Z,54.20
2023-01-02T15:55:56.136Z,54.75
2023-01-02T15:58:30.917Z,54.83
2023-01-02T16:01:21.096Z,55.82
2023-01-02T16:04:01.175Z,55.70
2023-01-02T16:06:40.933Z,55.96
2023-01-02T16:09:18.054Z,56.14
2023-01-02T16:11:47.427Z,56.63
2023-01-02T16:14:19.775Z,56.38
2023-01-02T16:16:50.801Z,56.93
2023-01-02T16:19:37.616Z,57.66
2023-01-02T16:22:10.085Z,57.20
2023-01-02T16:24:45.871Z,57.36
2023-01-02T16:27:14.116Z,57.98
2023-01-02T16:29:42.731Z,58.32
2023-01-02T16:32:27.695Z,58.20
2023-01-02T16:35:23.486Z,58.92
2023-01-02T16:38:18.781Z,59.37
2023-01-02T16:40:59.871Z,59.54
2023-01-02T16:43:30.950Z,59.67
2023-01-02T16:45:58.339Z,59.70
2023-01-02T16:48:28.244Z,59.56
2023-01-02T16:50:56.205Z,60.16
2023-01-02T16:53:29.080Z,60.16
2023-01-02T16:55:58.803Z,60.70
2023-01-02T16:58:25.510Z,61.22
2023-01-02T17:00:53.899Z,61.92
2023-01-02T17:03:25.959Z,62.86
2023-01-02T17:06:01.562Z,63.59
2023-01-02T17:08:31.253Z,64.32
2023-01-02T17:10:58.881Z,64.77
2023-01-02T17:13:26.062Z,64.91
2023-01-02T17:15:52.667Z,64.92
2023-01-02T17:18:19.235Z,64.88
2023-01-02T17:20:45.774Z,65.33
2023-01-02T17:23:12.266Z,65.28
2023-01-02T17:25:40.954Z,64.97
2023-01-02T17:28:07.614Z,64.50
2023-01-02T17:30:34.176Z,64.06
2023-01-02T17:33:04.229Z,63.95
2023-01-02T17:35:31.238Z,64.43
2023-01-02T17:37:57.768Z,64.16
2023-01-02T17:40:27.251Z,63.98
2023-01-02T17:42:54.038Z,63.59
2023-01-02T17:45:20.699Z,63.64
2023-01-02T17:48:01.300Z,62.84
2023-01-02T17:50:31.402Z,62.06
2023-01-02T17:52:58.208Z,62.47
2023-01-02T17:55:24.796Z,62.58
2023-01-02T17:57:51.356Z,61.93
2023-01-02T18:00:18.347Z,62.06
2023-01-02T18:02:45.164Z,62.26
2023-01-02T18:05:11.811Z,61.96
2023-01-02T18:07:38.685Z,61.86
2023-01-02T18:10:08.519Z,62.15
2023-01-02T18:12:37.928Z,62.17
2023-01-02T18:15:12.503Z,62.27
2023-01-02T18:17:39.095Z,62.18
2023-01-02T18:20:10.153Z,61.44
2023-01-02T18:22:36.620Z,61.93
2023-01-02T18:25:17.452Z,62.37
2023-01-02T18:27:45.224Z,62.45
2023-01-02T18:30:17.238Z,61.89
2023-01-02T18:32:44.470Z,61.67
2023-01-02T18:35:55.369Z,61.76
2023-01-02T18:38:19.254Z,61.79
2023-01-02T18:40:46.305Z,61.92
2023-01-02T18:43:20.802Z,61.73
2023-01-02T18:45:52.108Z,61.71
2023-01-02T18:48:19.650Z,61.82
2023-01-02T18:50:54.178Z,61.83
2023-01-02T18:53:23.479Z,61.78
2023-01-02T18:55:50.992Z,61.60
2023-01-02T18:58:30.084Z,61.59
2023-01-02T19:00:56.689Z,62.15
2023-01-02T19:03:26.104Z,62.30
2023-01-02T19:05:53.190Z,61.68
2023-01-02T19:08:23.030Z,62.56
2023-01-02T19:10:55.495Z,62.36
2023-01-02T19:13:30.859Z,62.59
2023-01-02T19:16:10.545Z,62.55
2023-01-02T19:18:39.783Z,63.20
2023-01-02T19:21:09.355Z,63.13
2023-01-02T19:24:05.870Z,62.38
2023-01-02T19:26:41.129Z,63.07
2023-01-02T19:29:15.353Z,62.96
2023-01-02T19:31:52.461Z,62.88
2023-01-02T19:34:26.206Z,63.01
2023-01-02T19:37:11.032Z,63.13
2023-01-02T19:39:49.776Z,63.27
2023-01-02T19:42:19.735Z,63.30
2023-01-02T19:44:57.103Z,64.15
2023-01-02T19:47:29.488Z,63.37
2023-01-02T19:49:56.417Z,63.71
2023-01-02T19:52:23.916Z,63.47
2023-01-02T19:54:52.290Z,63.26
2023-01-02T19:57:19.729Z,63.72
2023-01-02T19:59:47.651Z,63.55
2023-01-02T20:02:16.000Z,64.31
2023-01-02T20:04:43.280Z,63.80
2023-01-02T20:07:10.533Z,64.35
2023-01-02T20:09:37.175Z,64.00
2023-01-02T20:12:22.520Z,64.03
2023-01-02T20:14:49.041Z,63.69
2023-01-02T20:17:15.582Z,63.45
2023-01-02T20:19:42.239Z,63.89
2023-01-02T20:22:08.797Z,64.11
2023-01-02T20:24:35.602Z,63.79
2023-01-02T20:27:03.586Z,63.88
2023-01-02T20:29:30.643Z,64.29
2023-01-02T20:31:59.089Z,64.24
2023-01-02T20:34:25.716Z,64.59
2023-01-02T20:36:52.292Z,64.66
2023-01-02T20:39:18.829Z,64.33
2023-01-02T20:41:45.532Z,64.43
2023-01-02T20:44:13.483Z,64.13
2023-01-02T20:46:40.213Z,64.58
2023-01-02T20:49:07.702Z,64.14
2023-01-02T20:51:35.347Z,64.43
2023-01-02T20:54:02.697Z,64.95
2023-01-02T20:56:30.017Z,64.91
2023-01-02T20:58:56.947Z,65.31
2023-01-02T21:01:24.074Z,64.94
2023-01-02T21:03:50.865Z,64.81
2023-01-02T21:06:17.553Z,64.95
2023-01-02T21:08:44.060Z,65.04
2023-01-02T21:11:11.102Z,64.74
2023-01-02T21:13:37.915Z,65.34
2023-01-02T21:16:04.578Z,65.52
2023-01-02T21:18:33.687Z,64.90
2023-01-02T21:21:05.587Z,65.28
2023-01-02T21:23:33.895Z,64.83
2023-01-02T21:26:00.472Z,65.07
2023-01-02T21:28:27.093Z,64.92
2023-01-02T21:30:54.122Z,64.74
2023-01-02T21:33:22.285Z,65.36
2023-01-02T21:35:50.136Z,65.04
2023-01-02T21:38:18.587Z,65.21
2023-01-02T21:40:45.253Z,65.48
2023-01-02T21:43:11.999Z,66.26
2023-01-02T21:45:38.585Z,66.37
2023-01-02T21:48:05.469Z,66.77
2023-01-02T21:50:31.988Z,66.97
2023-01-02T21:52:58.549Z,67.13
2023-01-02T21:55:25.645Z,67.04
2023-01-02T22:00:41.137Z,67.36
2023-01-02T22:03:07.815Z,67.33
2023-01-02T22:05:34.465Z,67.64
2023-01-02T22:08:01.218Z,67.64
2023-01-02T22:10:27.770Z,67.78
2023-01-02T22:12:54.874Z,67.53
2023-01-02T22:15:21.426Z,67.65
2023-01-02T22:17:47.962Z,67.48
2023-01-02T22:20:14.972Z,67.32
2023-01-02T22:22:41.603Z,67.21
2023-01-02T22:25:09.115Z,67.23
2023-01-02T22:27:35.855Z,67.16
2023-01-02T22:30:23.014Z,67.31
2023-01-02T22:32:49.922Z,67.77
2023-01-02T22:35:16.708Z,67.40
2023-01-02T22:37:43.309Z,67.77
2023-01-02T22:40:10.411Z,67.69
2023-01-02T22:43:04.824Z,67.58
2023-01-02T22:45:47.453Z,67.77
2023-01-02T22:48:18.251Z,67.71
2023-01-02T22:50:45.870Z,68.01
2023-01-02T22:53:27.537Z,67.76
2023-01-02T22:55:54.153Z,67.86
2023-01-02T22:58:21.222Z,67.93
2023-01-02T23:00:54.766Z,67.96
2023-01-02T23:03:21.564Z,68.35
2023-01-02T23:05:48.123Z,68.40
2023-01-02T23:08:14.870Z,68.42
2023-01-02T23:10:41.922Z,68.17
2023-01-02T23:13:08.498Z,68.26
2023-01-02T23:15:35.159Z,68.16
2023-01-02T23:18:20.376Z,68.11
2023-01-02T23:20:46.897Z,67.86
2023-01-02T23:23:13.465Z,67.99
2023-01-02T23:25:42.324Z,67.75
2023-01-02T23:28:08.928Z,67.72
2023-01-02T23:30:35.472Z,67.97
2023-01-02T23:33:02.008Z,68.21
2023-01-02T23:35:28.536Z,68.32
2023-01-02T23:37:55.154Z,68.34
2023-01-02T23:40:21.670Z,67.95
2023-01-02T23:42:48.283Z,67.84
2023-01-02T23:45:14.859Z,68.18
2023-01-02T23:47:41.385Z,67.98
2023-01-02T23:50:08.153Z,68.11
2023-01-02T23:52:34.679Z,67.92
2023-01-02T23:55:01.190Z,67.69
2023-01-02T23:57:28.104Z,68.19
2023-01-02T23:59:54.641Z,68.31
